Terminal Aerodrome Forecast
Issued by NWS

Home | Current Version | Previous Version | Text Only | Print | Product List | Glossary On
Versions: 1 2 3 4 5 6 7 8 9 10 11 12 13 14 15 16 17 18 19 20 21 22 23 24 25 26 27 28 29 30 31 32 33 34 35 36 37 38 39 40 41
000
FTUS45 KCYS 281428 AAA
TAFRWL
TAF AMD
KRWL 281428Z 2814/2912 24012KT P6SM -SHRA SCT025 BKN060 OVC100
      TEMPO 2814/2816 BKN015
     FM281800 26012G19KT P6SM BKN100
     FM282200 29015G26KT P6SM VCTS SCT070CB BKN100
     FM290100 29008KT P6SM VCSH BKN120=

USA.gov is the U.S. government's official web portal to all federal, state and local government web resources and services.